sensor_id;sensor_type;location;lat;lon;timestamp;P1;durP1;ratioP1;P2;durP2;ratioP2
52642;SDS011;38531;53.296;6.614;2022-12-19T00:02:02;22.05;;;9.20;;
52642;SDS011;38531;53.296;6.614;2022-12-19T00:05:00;19.20;;;8.23;;
52642;SDS011;38531;53.296;6.614;2022-12-19T00:08:08;22.80;;;9.35;;
52642;SDS011;38531;53.296;6.614;2022-12-19T00:11:08;21.10;;;9.75;;
52642;SDS011;38531;53.296;6.614;2022-12-19T00:17:39;18.80;;;8.45;;
52642;SDS011;38531;53.296;6.614;2022-12-19T00:24:11;26.60;;;9.82;;
52642;SDS011;38531;53.296;6.614;2022-12-19T00:27:18;26.30;;;11.25;;
52642;SDS011;38531;53.296;6.614;2022-12-19T00:33:52;25.40;;;11.18;;
52642;SDS011;38531;53.296;6.614;2022-12-19T00:39:58;22.25;;;8.80;;
52642;SDS011;38531;53.296;6.614;2022-12-19T00:43:03;24.83;;;10.63;;
52642;SDS011;38531;53.296;6.614;2022-12-19T00:46:08;22.35;;;10.23;;
52642;SDS011;38531;53.296;6.614;2022-12-19T00:49:32;20.58;;;9.73;;
52642;SDS011;38531;53.296;6.614;2022-12-19T00:55:48;24.55;;;10.45;;
52642;SDS011;38531;53.296;6.614;2022-12-19T00:59:08;21.80;;;10.00;;
52642;SDS011;38531;53.296;6.614;2022-12-19T01:02:21;18.42;;;8.80;;
52642;SDS011;38531;53.296;6.614;2022-12-19T01:05:38;23.42;;;9.55;;
52642;SDS011;38531;53.296;6.614;2022-12-19T01:22:00;19.63;;;8.48;;
52642;SDS011;38531;53.296;6.614;2022-12-19T01:25:09;21.92;;;9.88;;
52642;SDS011;38531;53.296;6.614;2022-12-19T01:28:13;21.85;;;9.80;;
52642;SDS011;38531;53.296;6.614;2022-12-19T01:34:16;20.02;;;9.40;;
52642;SDS011;38531;53.296;6.614;2022-12-19T01:47:02;20.75;;;9.68;;
52642;SDS011;38531;53.296;6.614;2022-12-19T01:50:04;24.35;;;9.60;;
52642;SDS011;38531;53.296;6.614;2022-12-19T01:53:24;23.63;;;9.65;;
52642;SDS011;38531;53.296;6.614;2022-12-19T02:00:04;25.38;;;9.77;;
52642;SDS011;38531;53.296;6.614;2022-12-19T02:02:58;25.05;;;9.55;;
52642;SDS011;38531;53.296;6.614;2022-12-19T02:12:18;23.38;;;9.20;;
52642;SDS011;38531;53.296;6.614;2022-12-19T02:18:32;26.55;;;9.15;;
52642;SDS011;38531;53.296;6.614;2022-12-19T02:41:50;26.83;;;10.48;;
52642;SDS011;38531;53.296;6.614;2022-12-19T02:48:26;23.75;;;9.10;;
52642;SDS011;38531;53.296;6.614;2022-12-19T02:54:24;21.95;;;8.98;;
52642;SDS011;38531;53.296;6.614;2022-12-19T03:11:02;22.48;;;9.52;;
52642;SDS011;38531;53.296;6.614;2022-12-19T03:24:48;25.77;;;11.75;;
52642;SDS011;38531;53.296;6.614;2022-12-19T03:41:19;24.52;;;10.57;;
52642;SDS011;38531;53.296;6.614;2022-12-19T03:44:54;20.02;;;8.88;;
52642;SDS011;38531;53.296;6.614;2022-12-19T04:02:23;29.38;;;11.18;;
52642;SDS011;38531;53.296;6.614;2022-12-19T04:05:28;29.27;;;11.23;;
52642;SDS011;38531;53.296;6.614;2022-12-19T04:08:48;27.25;;;11.20;;
52642;SDS011;38531;53.296;6.614;2022-12-19T04:11:33;26.98;;;12.68;;
52642;SDS011;38531;53.296;6.614;2022-12-19T04:21:16;25.40;;;10.95;;
52642;SDS011;38531;53.296;6.614;2022-12-19T04:24:40;26.02;;;10.77;;
52642;SDS011;38531;53.296;6.614;2022-12-19T04:27:56;24.25;;;11.75;;
52642;SDS011;38531;53.296;6.614;2022-12-19T04:38:00;30.58;;;12.52;;
52642;SDS011;38531;53.296;6.614;2022-12-19T04:41:08;33.40;;;13.27;;
52642;SDS011;38531;53.296;6.614;2022-12-19T04:44:28;30.05;;;13.60;;
52642;SDS011;38531;53.296;6.614;2022-12-19T04:47:22;33.20;;;13.55;;
52642;SDS011;38531;53.296;6.614;2022-12-19T04:50:46;26.92;;;12.75;;
52642;SDS011;38531;53.296;6.614;2022-12-19T04:54:08;31.30;;;13.02;;
52642;SDS011;38531;53.296;6.614;2022-12-19T04:57:38;32.38;;;12.60;;
52642;SDS011;38531;53.296;6.614;2022-12-19T05:07:22;27.13;;;12.30;;
52642;SDS011;38531;53.296;6.614;2022-12-19T05:13:40;31.02;;;13.93;;
52642;SDS011;38531;53.296;6.614;2022-12-19T05:17:03;29.27;;;12.60;;
52642;SDS011;38531;53.296;6.614;2022-12-19T05:20:05;33.88;;;12.95;;
52642;SDS011;38531;53.296;6.614;2022-12-19T05:23:22;32.08;;;12.85;;
52642;SDS011;38531;53.296;6.614;2022-12-19T05:26:48;29.50;;;13.60;;
52642;SDS011;38531;53.296;6.614;2022-12-19T05:30:10;30.65;;;13.63;;
52642;SDS011;38531;53.296;6.614;2022-12-19T05:36:38;28.35;;;13.35;;
52642;SDS011;38531;53.296;6.614;2022-12-19T05:39:52;26.30;;;12.57;;
52642;SDS011;38531;53.296;6.614;2022-12-19T05:42:38;30.02;;;14.13;;
52642;SDS011;38531;53.296;6.614;2022-12-19T05:45:52;33.03;;;14.02;;
52642;SDS011;38531;53.296;6.614;2022-12-19T05:51:52;28.73;;;12.85;;
52642;SDS011;38531;53.296;6.614;2022-12-19T05:54:56;27.48;;;12.68;;
52642;SDS011;38531;53.296;6.614;2022-12-19T05:58:14;28.20;;;12.98;;
52642;SDS011;38531;53.296;6.614;2022-12-19T06:01:05;26.60;;;12.23;;
52642;SDS011;38531;53.296;6.614;2022-12-19T06:04:22;24.42;;;12.20;;
52642;SDS011;38531;53.296;6.614;2022-12-19T06:07:02;25.67;;;11.70;;
52642;SDS011;38531;53.296;6.614;2022-12-19T06:10:28;26.20;;;12.10;;
52642;SDS011;38531;53.296;6.614;2022-12-19T06:13:57;20.45;;;10.55;;
52642;SDS011;38531;53.296;6.614;2022-12-19T06:16:25;26.77;;;10.73;;
52642;SDS011;38531;53.296;6.614;2022-12-19T06:19:31;22.05;;;10.68;;
52642;SDS011;38531;53.296;6.614;2022-12-19T06:23:00;19.67;;;8.98;;
52642;SDS011;38531;53.296;6.614;2022-12-19T06:26:16;25.10;;;11.00;;
52642;SDS011;38531;53.296;6.614;2022-12-19T06:29:18;21.40;;;9.07;;
52642;SDS011;38531;53.296;6.614;2022-12-19T06:32:12;19.93;;;9.87;;
52642;SDS011;38531;53.296;6.614;2022-12-19T06:35:36;19.10;;;8.85;;
52642;SDS011;38531;53.296;6.614;2022-12-19T06:38:20;15.38;;;7.30;;
52642;SDS011;38531;53.296;6.614;2022-12-19T06:41:18;17.25;;;8.25;;
52642;SDS011;38531;53.296;6.614;2022-12-19T06:44:46;17.83;;;8.43;;
52642;SDS011;38531;53.296;6.614;2022-12-19T06:48:00;16.13;;;8.30;;
52642;SDS011;38531;53.296;6.614;2022-12-19T06:51:10;15.30;;;7.80;;
52642;SDS011;38531;53.296;6.614;2022-12-19T06:53:47;15.57;;;7.68;;
52642;SDS011;38531;53.296;6.614;2022-12-19T07:00:14;10.82;;;6.78;;
52642;SDS011;38531;53.296;6.614;2022-12-19T07:02:51;14.80;;;7.55;;
52642;SDS011;38531;53.296;6.614;2022-12-19T07:05:32;16.90;;;7.47;;
52642;SDS011;38531;53.296;6.614;2022-12-19T07:08:54;16.30;;;7.50;;
52642;SDS011;38531;53.296;6.614;2022-12-19T07:15:10;13.32;;;5.85;;
52642;SDS011;38531;53.296;6.614;2022-12-19T07:17:58;10.50;;;6.20;;
52642;SDS011;38531;53.296;6.614;2022-12-19T07:20:57;10.32;;;5.40;;
52642;SDS011;38531;53.296;6.614;2022-12-19T07:27:58;11.85;;;5.47;;
52642;SDS011;38531;53.296;6.614;2022-12-19T07:34:20;11.27;;;5.53;;
52642;SDS011;38531;53.296;6.614;2022-12-19T07:40:41;11.13;;;5.70;;
52642;SDS011;38531;53.296;6.614;2022-12-19T07:46:56;9.70;;;4.50;;
52642;SDS011;38531;53.296;6.614;2022-12-19T07:53:46;9.90;;;5.03;;
52642;SDS011;38531;53.296;6.614;2022-12-19T07:56:54;10.68;;;5.10;;
52642;SDS011;38531;53.296;6.614;2022-12-19T08:00:00;10.18;;;4.80;;
52642;SDS011;38531;53.296;6.614;2022-12-19T08:06:18;7.07;;;4.43;;
52642;SDS011;38531;53.296;6.614;2022-12-19T08:09:31;10.63;;;5.18;;
52642;SDS011;38531;53.296;6.614;2022-12-19T08:12:13;10.07;;;5.30;;
52642;SDS011;38531;53.296;6.614;2022-12-19T08:15:02;9.00;;;4.30;;
52642;SDS011;38531;53.296;6.614;2022-12-19T08:17:56;8.45;;;4.57;;
52642;SDS011;38531;53.296;6.614;2022-12-19T08:20:35;8.25;;;4.38;;
52642;SDS011;38531;53.296;6.614;2022-12-19T08:23:34;9.07;;;4.30;;
52642;SDS011;38531;53.296;6.614;2022-12-19T08:26:19;10.60;;;4.68;;
52642;SDS011;38531;53.296;6.614;2022-12-19T08:35:34;7.30;;;4.10;;
52642;SDS011;38531;53.296;6.614;2022-12-19T08:38:39;8.57;;;4.22;;
52642;SDS011;38531;53.296;6.614;2022-12-19T08:41:18;9.43;;;4.45;;
52642;SDS011;38531;53.296;6.614;2022-12-19T08:47:07;7.82;;;4.45;;
52642;SDS011;38531;53.296;6.614;2022-12-19T08:49:48;8.63;;;4.85;;
52642;SDS011;38531;53.296;6.614;2022-12-19T08:52:56;6.10;;;3.80;;
52642;SDS011;38531;53.296;6.614;2022-12-19T08:56:05;7.82;;;4.30;;
52642;SDS011;38531;53.296;6.614;2022-12-19T08:59:04;7.47;;;4.25;;
52642;SDS011;38531;53.296;6.614;2022-12-19T09:02:20;7.80;;;3.88;;
52642;SDS011;38531;53.296;6.614;2022-12-19T09:05:24;6.60;;;4.35;;
52642;SDS011;38531;53.296;6.614;2022-12-19T09:11:07;7.25;;;3.78;;
52642;SDS011;38531;53.296;6.614;2022-12-19T09:14:06;7.70;;;4.07;;
52642;SDS011;38531;53.296;6.614;2022-12-19T09:26:24;8.23;;;4.60;;
52642;SDS011;38531;53.296;6.614;2022-12-19T09:32:34;9.05;;;4.97;;
52642;SDS011;38531;53.296;6.614;2022-12-19T09:35:25;10.45;;;5.70;;
52642;SDS011;38531;53.296;6.614;2022-12-19T09:37:56;7.63;;;4.45;;
52642;SDS011;38531;53.296;6.614;2022-12-19T09:40:24;8.32;;;5.00;;
52642;SDS011;38531;53.296;6.614;2022-12-19T09:43:02;9.30;;;5.18;;
52642;SDS011;38531;53.296;6.614;2022-12-19T09:48:37;9.60;;;5.53;;
52642;SDS011;38531;53.296;6.614;2022-12-19T09:51:07;10.88;;;6.05;;
52642;SDS011;38531;53.296;6.614;2022-12-19T09:56:32;10.38;;;5.00;;
52642;SDS011;38531;53.296;6.614;2022-12-19T09:59:07;10.30;;;5.97;;
52642;SDS011;38531;53.296;6.614;2022-12-19T10:02:00;11.57;;;5.85;;
52642;SDS011;38531;53.296;6.614;2022-12-19T10:04:46;11.18;;;7.18;;
52642;SDS011;38531;53.296;6.614;2022-12-19T10:07:21;11.50;;;5.97;;
52642;SDS011;38531;53.296;6.614;2022-12-19T10:09:53;10.55;;;5.90;;
52642;SDS011;38531;53.296;6.614;2022-12-19T10:15:46;11.27;;;6.25;;
52642;SDS011;38531;53.296;6.614;2022-12-19T10:21:05;12.50;;;6.60;;
52642;SDS011;38531;53.296;6.614;2022-12-19T10:23:51;11.85;;;7.00;;
52642;SDS011;38531;53.296;6.614;2022-12-19T10:26:33;11.07;;;6.28;;
52642;SDS011;38531;53.296;6.614;2022-12-19T10:29:17;11.90;;;6.03;;
52642;SDS011;38531;53.296;6.614;2022-12-19T10:35:34;13.55;;;7.68;;
52642;SDS011;38531;53.296;6.614;2022-12-19T10:38:35;10.02;;;5.72;;
52642;SDS011;38531;53.296;6.614;2022-12-19T10:41:48;9.93;;;6.55;;
52642;SDS011;38531;53.296;6.614;2022-12-19T10:44:44;10.57;;;6.50;;
52642;SDS011;38531;53.296;6.614;2022-12-19T10:47:25;12.07;;;6.28;;
52642;SDS011;38531;53.296;6.614;2022-12-19T10:53:25;10.20;;;6.03;;
52642;SDS011;38531;53.296;6.614;2022-12-19T10:56:17;11.38;;;6.32;;
52642;SDS011;38531;53.296;6.614;2022-12-19T11:08:54;8.82;;;5.78;;
52642;SDS011;38531;53.296;6.614;2022-12-19T11:12:00;8.25;;;5.57;;
52642;SDS011;38531;53.296;6.614;2022-12-19T11:22:05;10.98;;;5.65;;
52642;SDS011;38531;53.296;6.614;2022-12-19T11:25:20;8.52;;;6.22;;
52642;SDS011;38531;53.296;6.614;2022-12-19T11:28:46;9.30;;;5.75;;
52642;SDS011;38531;53.296;6.614;2022-12-19T11:31:49;12.60;;;5.47;;
52642;SDS011;38531;53.296;6.614;2022-12-19T11:38:14;8.65;;;4.65;;
52642;SDS011;38531;53.296;6.614;2022-12-19T11:41:29;10.85;;;6.13;;
52642;SDS011;38531;53.296;6.614;2022-12-19T11:44:21;9.85;;;6.05;;
52642;SDS011;38531;53.296;6.614;2022-12-19T11:50:36;9.63;;;5.95;;
52642;SDS011;38531;53.296;6.614;2022-12-19T11:56:58;7.60;;;5.15;;
52642;SDS011;38531;53.296;6.614;2022-12-19T11:59:56;7.53;;;4.95;;
52642;SDS011;38531;53.296;6.614;2022-12-19T12:15:46;8.77;;;4.60;;
52642;SDS011;38531;53.296;6.614;2022-12-19T12:19:19;7.85;;;4.72;;
52642;SDS011;38531;53.296;6.614;2022-12-19T12:28:52;9.88;;;4.97;;
52642;SDS011;38531;53.296;6.614;2022-12-19T12:32:08;9.20;;;4.47;;
52642;SDS011;38531;53.296;6.614;2022-12-19T12:47:46;7.93;;;4.50;;
52642;SDS011;38531;53.296;6.614;2022-12-19T12:50:46;6.22;;;4.18;;
52642;SDS011;38531;53.296;6.614;2022-12-19T12:53:21;7.25;;;4.07;;
52642;SDS011;38531;53.296;6.614;2022-12-19T12:55:56;9.38;;;4.97;;
52642;SDS011;38531;53.296;6.614;2022-12-19T12:59:01;8.38;;;4.82;;
52642;SDS011;38531;53.296;6.614;2022-12-19T13:01:35;7.20;;;4.40;;
52642;SDS011;38531;53.296;6.614;2022-12-19T13:04:25;7.28;;;4.72;;
52642;SDS011;38531;53.296;6.614;2022-12-19T13:07:11;8.60;;;4.38;;
52642;SDS011;38531;53.296;6.614;2022-12-19T13:09:41;7.82;;;4.32;;
52642;SDS011;38531;53.296;6.614;2022-12-19T13:12:23;7.25;;;4.65;;
52642;SDS011;38531;53.296;6.614;2022-12-19T13:15:35;9.10;;;4.22;;
52642;SDS011;38531;53.296;6.614;2022-12-19T13:18:33;9.38;;;4.32;;
52642;SDS011;38531;53.296;6.614;2022-12-19T13:26:43;5.80;;;4.10;;
52642;SDS011;38531;53.296;6.614;2022-12-19T13:38:40;6.47;;;3.90;;
52642;SDS011;38531;53.296;6.614;2022-12-19T13:48:36;7.72;;;3.67;;
52642;SDS011;38531;53.296;6.614;2022-12-19T13:54:54;7.30;;;4.10;;
52642;SDS011;38531;53.296;6.614;2022-12-19T13:58:04;4.03;;;2.80;;
52642;SDS011;38531;53.296;6.614;2022-12-19T14:01:06;5.82;;;3.55;;
52642;SDS011;38531;53.296;6.614;2022-12-19T14:10:32;5.97;;;3.85;;
52642;SDS011;38531;53.296;6.614;2022-12-19T14:13:21;4.70;;;3.03;;
52642;SDS011;38531;53.296;6.614;2022-12-19T14:19:14;6.60;;;3.55;;
52642;SDS011;38531;53.296;6.614;2022-12-19T14:25:21;7.00;;;4.35;;
52642;SDS011;38531;53.296;6.614;2022-12-19T14:28:17;7.40;;;4.68;;
52642;SDS011;38531;53.296;6.614;2022-12-19T14:34:28;5.70;;;4.25;;
52642;SDS011;38531;53.296;6.614;2022-12-19T14:37:39;5.50;;;3.67;;
52642;SDS011;38531;53.296;6.614;2022-12-19T14:40:52;7.90;;;4.28;;
52642;SDS011;38531;53.296;6.614;2022-12-19T14:43:52;8.15;;;4.40;;
52642;SDS011;38531;53.296;6.614;2022-12-19T14:46:36;7.35;;;3.65;;
52642;SDS011;38531;53.296;6.614;2022-12-19T14:49:36;6.43;;;4.00;;
52642;SDS011;38531;53.296;6.614;2022-12-19T14:52:50;6.65;;;3.85;;
52642;SDS011;38531;53.296;6.614;2022-12-19T14:56:13;6.25;;;3.47;;
52642;SDS011;38531;53.296;6.614;2022-12-19T14:59:35;8.38;;;3.40;;
52642;SDS011;38531;53.296;6.614;2022-12-19T15:02:33;6.22;;;3.40;;
52642;SDS011;38531;53.296;6.614;2022-12-19T15:05:16;8.45;;;3.97;;
52642;SDS011;38531;53.296;6.614;2022-12-19T15:08:02;7.53;;;4.13;;
52642;SDS011;38531;53.296;6.614;2022-12-19T15:10:49;8.85;;;3.90;;
52642;SDS011;38531;53.296;6.614;2022-12-19T15:13:57;6.00;;;3.67;;
52642;SDS011;38531;53.296;6.614;2022-12-19T15:17:02;6.03;;;3.20;;
52642;SDS011;38531;53.296;6.614;2022-12-19T15:19:59;7.43;;;2.88;;
52642;SDS011;38531;53.296;6.614;2022-12-19T15:22:49;6.13;;;3.08;;
52642;SDS011;38531;53.296;6.614;2022-12-19T15:26:09;5.78;;;2.97;;
52642;SDS011;38531;53.296;6.614;2022-12-19T15:28:49;6.97;;;3.15;;
52642;SDS011;38531;53.296;6.614;2022-12-19T15:35:14;5.82;;;3.03;;
52642;SDS011;38531;53.296;6.614;2022-12-19T15:38:10;5.32;;;3.13;;
52642;SDS011;38531;53.296;6.614;2022-12-19T15:44:19;9.57;;;3.38;;
52642;SDS011;38531;53.296;6.614;2022-12-19T15:47:51;5.30;;;3.20;;
52642;SDS011;38531;53.296;6.614;2022-12-19T15:50:26;4.82;;;2.75;;
52642;SDS011;38531;53.296;6.614;2022-12-19T15:56:41;5.53;;;3.35;;
52642;SDS011;38531;53.296;6.614;2022-12-19T15:59:30;5.55;;;3.03;;
52642;SDS011;38531;53.296;6.614;2022-12-19T16:02:52;6.72;;;3.90;;
52642;SDS011;38531;53.296;6.614;2022-12-19T16:05:38;4.90;;;2.70;;
52642;SDS011;38531;53.296;6.614;2022-12-19T16:11:46;5.88;;;2.95;;
52642;SDS011;38531;53.296;6.614;2022-12-19T16:15:01;5.30;;;3.15;;
52642;SDS011;38531;53.296;6.614;2022-12-19T16:18:21;6.55;;;2.85;;
52642;SDS011;38531;53.296;6.614;2022-12-19T16:38:12;6.22;;;3.53;;
52642;SDS011;38531;53.296;6.614;2022-12-19T16:41:13;6.30;;;3.20;;
52642;SDS011;38531;53.296;6.614;2022-12-19T16:44:28;7.63;;;3.17;;
52642;SDS011;38531;53.296;6.614;2022-12-19T16:47:22;9.68;;;3.17;;
52642;SDS011;38531;53.296;6.614;2022-12-19T16:53:47;6.18;;;3.47;;
52642;SDS011;38531;53.296;6.614;2022-12-19T16:57:00;6.03;;;3.40;;
52642;SDS011;38531;53.296;6.614;2022-12-19T17:00:06;8.02;;;3.67;;
52642;SDS011;38531;53.296;6.614;2022-12-19T17:03:16;6.90;;;4.53;;
52642;SDS011;38531;53.296;6.614;2022-12-19T17:09:48;6.20;;;3.53;;
52642;SDS011;38531;53.296;6.614;2022-12-19T17:12:58;5.15;;;3.67;;
52642;SDS011;38531;53.296;6.614;2022-12-19T17:16:02;5.70;;;3.40;;
52642;SDS011;38531;53.296;6.614;2022-12-19T17:22:30;6.47;;;4.10;;
52642;SDS011;38531;53.296;6.614;2022-12-19T17:25:30;6.22;;;3.78;;
52642;SDS011;38531;53.296;6.614;2022-12-19T17:28:48;7.13;;;4.15;;
52642;SDS011;38531;53.296;6.614;2022-12-19T17:31:51;6.00;;;3.55;;
52642;SDS011;38531;53.296;6.614;2022-12-19T17:41:32;8.45;;;4.30;;
52642;SDS011;38531;53.296;6.614;2022-12-19T17:51:21;8.82;;;3.88;;
52642;SDS011;38531;53.296;6.614;2022-12-19T17:54:01;6.55;;;3.97;;
52642;SDS011;38531;53.296;6.614;2022-12-19T17:56:37;6.93;;;4.15;;
52642;SDS011;38531;53.296;6.614;2022-12-19T17:59:06;10.75;;;4.60;;
52642;SDS011;38531;53.296;6.614;2022-12-19T18:01:44;7.80;;;4.28;;
52642;SDS011;38531;53.296;6.614;2022-12-19T18:04:22;8.65;;;4.07;;
52642;SDS011;38531;53.296;6.614;2022-12-19T18:07:16;10.68;;;4.28;;
52642;SDS011;38531;53.296;6.614;2022-12-19T18:10:05;8.18;;;3.92;;
52642;SDS011;38531;53.296;6.614;2022-12-19T18:12:41;6.20;;;3.50;;
52642;SDS011;38531;53.296;6.614;2022-12-19T18:15:17;5.70;;;3.35;;
52642;SDS011;38531;53.296;6.614;2022-12-19T18:17:46;7.80;;;3.20;;
52642;SDS011;38531;53.296;6.614;2022-12-19T18:23:01;5.85;;;3.13;;
52642;SDS011;38531;53.296;6.614;2022-12-19T18:25:35;6.50;;;3.42;;
52642;SDS011;38531;53.296;6.614;2022-12-19T18:28:05;6.03;;;3.25;;
52642;SDS011;38531;53.296;6.614;2022-12-19T18:30:36;10.15;;;3.60;;
52642;SDS011;38531;53.296;6.614;2022-12-19T18:33:24;5.93;;;3.50;;
52642;SDS011;38531;53.296;6.614;2022-12-19T18:40:16;5.10;;;3.42;;
52642;SDS011;38531;53.296;6.614;2022-12-19T18:43:32;5.40;;;3.30;;
52642;SDS011;38531;53.296;6.614;2022-12-19T18:46:48;7.68;;;3.35;;
52642;SDS011;38531;53.296;6.614;2022-12-19T18:56:51;9.82;;;3.90;;
52642;SDS011;38531;53.296;6.614;2022-12-19T18:59:23;5.97;;;3.13;;
52642;SDS011;38531;53.296;6.614;2022-12-19T19:01:54;10.05;;;4.25;;
52642;SDS011;38531;53.296;6.614;2022-12-19T19:04:25;8.40;;;4.53;;
52642;SDS011;38531;53.296;6.614;2022-12-19T19:06:53;7.68;;;4.22;;
52642;SDS011;38531;53.296;6.614;2022-12-19T19:09:22;6.65;;;3.42;;
52642;SDS011;38531;53.296;6.614;2022-12-19T19:11:53;7.20;;;4.25;;
52642;SDS011;38531;53.296;6.614;2022-12-19T19:14:22;7.15;;;3.67;;
52642;SDS011;38531;53.296;6.614;2022-12-19T19:16:53;7.30;;;3.78;;
52642;SDS011;38531;53.296;6.614;2022-12-19T19:19:20;9.35;;;4.50;;
52642;SDS011;38531;53.296;6.614;2022-12-19T19:21:47;6.97;;;3.78;;
52642;SDS011;38531;53.296;6.614;2022-12-19T19:24:23;7.75;;;4.38;;
52642;SDS011;38531;53.296;6.614;2022-12-19T19:26:55;12.80;;;4.20;;
52642;SDS011;38531;53.296;6.614;2022-12-19T19:29:27;6.82;;;4.20;;
52642;SDS011;38531;53.296;6.614;2022-12-19T19:32:04;8.07;;;3.80;;
52642;SDS011;38531;53.296;6.614;2022-12-19T19:34:40;9.05;;;4.35;;
52642;SDS011;38531;53.296;6.614;2022-12-19T19:37:07;8.13;;;4.13;;
52642;SDS011;38531;53.296;6.614;2022-12-19T19:39:37;11.50;;;3.47;;
52642;SDS011;38531;53.296;6.614;2022-12-19T19:42:10;7.32;;;3.65;;
52642;SDS011;38531;53.296;6.614;2022-12-19T19:44:37;11.15;;;4.78;;
52642;SDS011;38531;53.296;6.614;2022-12-19T19:47:04;8.02;;;4.32;;
52642;SDS011;38531;53.296;6.614;2022-12-19T19:49:38;6.15;;;4.10;;
52642;SDS011;38531;53.296;6.614;2022-12-19T19:52:15;10.32;;;4.25;;
52642;SDS011;38531;53.296;6.614;2022-12-19T19:54:48;8.82;;;4.00;;
52642;SDS011;38531;53.296;6.614;2022-12-19T19:57:15;6.65;;;4.22;;
52642;SDS011;38531;53.296;6.614;2022-12-19T19:59:43;6.00;;;3.72;;
52642;SDS011;38531;53.296;6.614;2022-12-19T20:02:13;6.13;;;3.47;;
52642;SDS011;38531;53.296;6.614;2022-12-19T20:04:42;8.82;;;4.18;;
52642;SDS011;38531;53.296;6.614;2022-12-19T20:07:10;7.15;;;3.17;;
52642;SDS011;38531;53.296;6.614;2022-12-19T20:09:39;8.48;;;3.53;;
52642;SDS011;38531;53.296;6.614;2022-12-19T20:12:08;7.55;;;4.30;;
52642;SDS011;38531;53.296;6.614;2022-12-19T20:14:34;8.10;;;4.68;;
52642;SDS011;38531;53.296;6.614;2022-12-19T20:17:03;7.35;;;5.22;;
52642;SDS011;38531;53.296;6.614;2022-12-19T20:19:35;6.25;;;3.78;;
52642;SDS011;38531;53.296;6.614;2022-12-19T20:22:08;8.50;;;3.13;;
52642;SDS011;38531;53.296;6.614;2022-12-19T20:24:40;7.13;;;3.50;;
52642;SDS011;38531;53.296;6.614;2022-12-19T20:27:07;6.78;;;3.75;;
52642;SDS011;38531;53.296;6.614;2022-12-19T20:29:38;6.47;;;3.72;;
52642;SDS011;38531;53.296;6.614;2022-12-19T20:32:08;9.18;;;4.70;;
52642;SDS011;38531;53.296;6.614;2022-12-19T20:34:42;7.35;;;3.28;;
52642;SDS011;38531;53.296;6.614;2022-12-19T20:37:19;6.65;;;3.42;;
52642;SDS011;38531;53.296;6.614;2022-12-19T20:39:48;8.55;;;3.42;;
52642;SDS011;38531;53.296;6.614;2022-12-19T20:42:17;7.13;;;5.40;;
52642;SDS011;38531;53.296;6.614;2022-12-19T20:44:50;5.18;;;3.50;;
52642;SDS011;38531;53.296;6.614;2022-12-19T20:47:17;7.68;;;3.63;;
52642;SDS011;38531;53.296;6.614;2022-12-19T20:49:51;7.97;;;3.33;;
52642;SDS011;38531;53.296;6.614;2022-12-19T20:52:18;11.25;;;5.53;;
52642;SDS011;38531;53.296;6.614;2022-12-19T20:54:46;9.73;;;4.28;;
52642;SDS011;38531;53.296;6.614;2022-12-19T20:57:18;8.30;;;3.72;;
52642;SDS011;38531;53.296;6.614;2022-12-19T20:59:49;5.05;;;3.20;;
52642;SDS011;38531;53.296;6.614;2022-12-19T21:02:18;10.65;;;7.05;;
52642;SDS011;38531;53.296;6.614;2022-12-19T21:04:45;21.70;;;19.65;;
52642;SDS011;38531;53.296;6.614;2022-12-19T21:07:13;5.57;;;2.58;;
52642;SDS011;38531;53.296;6.614;2022-12-19T21:10:00;3.58;;;2.20;;
52642;SDS011;38531;53.296;6.614;2022-12-19T21:13:02;6.22;;;5.35;;
52642;SDS011;38531;53.296;6.614;2022-12-19T21:22:40;5.78;;;3.83;;
52642;SDS011;38531;53.296;6.614;2022-12-19T21:26:04;4.90;;;2.97;;
52642;SDS011;38531;53.296;6.614;2022-12-19T21:36:09;4.15;;;2.45;;
52642;SDS011;38531;53.296;6.614;2022-12-19T21:39:28;4.65;;;2.42;;
52642;SDS011;38531;53.296;6.614;2022-12-19T21:42:34;6.18;;;3.15;;
52642;SDS011;38531;53.296;6.614;2022-12-19T21:45:48;13.32;;;11.65;;
52642;SDS011;38531;53.296;6.614;2022-12-19T22:02:38;3.63;;;2.40;;
52642;SDS011;38531;53.296;6.614;2022-12-19T22:09:20;7.03;;;2.65;;
52642;SDS011;38531;53.296;6.614;2022-12-19T22:11:48;8.95;;;3.10;;
52642;SDS011;38531;53.296;6.614;2022-12-19T22:14:14;4.55;;;2.63;;
52642;SDS011;38531;53.296;6.614;2022-12-19T22:16:48;5.18;;;2.78;;
52642;SDS011;38531;53.296;6.614;2022-12-19T22:19:15;3.72;;;2.38;;
52642;SDS011;38531;53.296;6.614;2022-12-19T22:22:00;7.05;;;2.65;;
52642;SDS011;38531;53.296;6.614;2022-12-19T22:24:35;7.47;;;2.47;;
52642;SDS011;38531;53.296;6.614;2022-12-19T22:27:01;6.10;;;2.78;;
52642;SDS011;38531;53.296;6.614;2022-12-19T22:29:28;3.97;;;2.38;;
52642;SDS011;38531;53.296;6.614;2022-12-19T22:31:54;3.58;;;2.28;;
52642;SDS011;38531;53.296;6.614;2022-12-19T22:34:22;3.78;;;1.77;;
52642;SDS011;38531;53.296;6.614;2022-12-19T22:36:48;5.85;;;2.35;;
52642;SDS011;38531;53.296;6.614;2022-12-19T22:39:17;3.95;;;2.33;;
52642;SDS011;38531;53.296;6.614;2022-12-19T22:41:44;6.40;;;2.25;;
52642;SDS011;38531;53.296;6.614;2022-12-19T22:44:14;5.35;;;2.45;;
52642;SDS011;38531;53.296;6.614;2022-12-19T22:46:48;9.43;;;2.50;;
52642;SDS011;38531;53.296;6.614;2022-12-19T22:49:15;7.47;;;2.53;;
52642;SDS011;38531;53.296;6.614;2022-12-19T22:51:42;4.32;;;2.03;;
52642;SDS011;38531;53.296;6.614;2022-12-19T22:54:10;6.43;;;2.33;;
52642;SDS011;38531;53.296;6.614;2022-12-19T22:56:42;3.72;;;2.10;;
52642;SDS011;38531;53.296;6.614;2022-12-19T22:59:10;4.32;;;2.08;;
52642;SDS011;38531;53.296;6.614;2022-12-19T23:01:39;3.05;;;1.75;;
52642;SDS011;38531;53.296;6.614;2022-12-19T23:04:07;4.30;;;1.98;;
52642;SDS011;38531;53.296;6.614;2022-12-19T23:06:38;4.10;;;2.10;;
52642;SDS011;38531;53.296;6.614;2022-12-19T23:09:07;5.03;;;2.40;;
52642;SDS011;38531;53.296;6.614;2022-12-19T23:11:37;4.00;;;1.83;;
52642;SDS011;38531;53.296;6.614;2022-12-19T23:14:05;4.00;;;1.83;;
52642;SDS011;38531;53.296;6.614;2022-12-19T23:16:44;5.35;;;2.28;;
52642;SDS011;38531;53.296;6.614;2022-12-19T23:20:06;7.15;;;2.38;;
52642;SDS011;38531;53.296;6.614;2022-12-19T23:23:00;4.05;;;2.20;;
52642;SDS011;38531;53.296;6.614;2022-12-19T23:32:46;5.97;;;1.80;;
52642;SDS011;38531;53.296;6.614;2022-12-19T23:36:08;2.65;;;1.60;;
52642;SDS011;38531;53.296;6.614;2022-12-19T23:52:46;5.78;;;2.03;;
52642;SDS011;38531;53.296;6.614;2022-12-19T23:59:22;4.95;;;2.03;;
